Terminal Aerodrome Forecast
Issued by NWS

Home | Current Version | Previous Version | Text Only | Print | Product List | Glossary Off
Versions: 1 2 3 4 5 6 7 8 9 10 11 12

000
FTUS45 KGGW 230500
TAFGDV
TAF
KGDV 230522Z 2306/2406 VRB06KT P6SM FEW210
     FM231800 20010KT P6SM SCT140
     FM240000 VRB06KT P6SM SCT120
      AMD LTD TO CLD VIS AND WIND=

USA.gov is the U.S. government's official web portal to all federal, state and local government web resources and services.